Time;durP1;ratioP1;P1;durP2;ratioP2;P2;SDS_P1;SDS_P2;PMS_P1;PMS_P2;Temp;Humidity;BMP_temperature;BMP_pressure;BME280_temperature;BME280_humidity;BME280_pressure;Samples;Min_cycle;Max_cycle;Signal;HPM_P1;HPM_P2
2021/04/13 00:00:01;;;;;;;8.70;0.70;;;2.60;99.90;;;;;;5081595;28;20045;-66
2021/04/13 00:02:39;;;;;;;8.70;1.15;;;2.60;99.90;;;;;;5077845;28;20090;-66
2021/04/13 00:05:24;;;;;;;10.07;0.60;;;2.70;99.90;;;;;;5082738;28;20036;-66
2021/04/13 00:07:51;;;;;;;4.90;0.55;;;2.60;99.90;;;;;;5080535;28;20066;-66
2021/04/13 00:10:33;;;;;;;6.20;0.82;;;2.70;99.90;;;;;;5083876;28;20035;-65
2021/04/13 00:13:01;;;;;;;7.68;0.80;;;2.60;99.90;;;;;;5085628;28;20043;-66
2021/04/13 00:15:32;;;;;;;6.78;0.55;;;2.70;99.90;;;;;;5082052;28;20453;-66
2021/04/13 00:17:58;;;;;;;5.43;0.55;;;2.70;99.90;;;;;;5082169;28;20122;-66
2021/04/13 00:20:48;;;;;;;10.02;0.63;;;2.70;99.90;;;;;;5082708;28;20055;-66
2021/04/13 00:23:16;;;;;;;6.72;1.33;;;2.70;99.90;;;;;;5081399;28;20036;-66
2021/04/13 00:25:54;;;;;;;12.45;0.68;;;2.70;99.90;;;;;;5084118;28;20036;-66
2021/04/13 00:28:26;;;;;;;9.63;0.88;;;2.70;99.90;;;;;;5086173;28;20033;-66
2021/04/13 00:30:58;;;;;;;6.30;1.02;;;2.60;99.90;;;;;;5089650;28;20128;-66
2021/04/13 00:33:30;;;;;;;9.57;0.60;;;2.60;99.90;;;;;;5087677;28;20085;-67
2021/04/13 00:36:08;;;;;;;10.82;0.50;;;2.60;99.90;;;;;;5084618;28;20557;-66
2021/04/13 00:38:45;;;;;;;6.32;1.90;;;2.60;99.90;;;;;;5087503;28;20055;-66
2021/04/13 00:41:25;;;;;;;4.80;0.65;;;2.60;99.90;;;;;;5086440;28;20044;-66
2021/04/13 00:43:55;;;;;;;4.05;0.70;;;2.60;99.90;;;;;;5086770;28;20060;-66
2021/04/13 00:46:27;;;;;;;8.75;0.70;;;2.60;99.90;;;;;;5091514;28;20040;-66
2021/04/13 00:48:56;;;;;;;5.10;0.52;;;2.50;99.90;;;;;;5091632;28;20346;-64
2021/04/13 00:51:32;;;;;;;5.60;0.60;;;2.60;99.90;;;;;;5083478;28;20478;-66
2021/04/13 00:54:02;;;;;;;8.80;0.80;;;2.50;99.90;;;;;;5083830;28;20055;-65
2021/04/13 00:56:29;;;;;;;7.65;0.60;;;2.50;99.90;;;;;;5086145;28;20063;-66
2021/04/13 00:59:10;;;;;;;9.30;0.77;;;2.50;99.90;;;;;;5090174;28;20059;-65
2021/04/13 01:01:47;;;;;;;9.07;0.98;;;2.50;99.90;;;;;;5085972;28;20040;-65
2021/04/13 01:04:28;;;;;;;5.60;0.60;;;2.50;99.90;;;;;;5086904;28;20482;-66
2021/04/13 01:07:13;;;;;;;9.07;1.42;;;2.40;99.90;;;;;;5089036;28;20032;-66
2021/04/13 01:09:50;;;;;;;7.18;0.68;;;2.40;99.90;;;;;;5089711;28;20036;-67
2021/04/13 01:12:29;;;;;;;11.98;0.93;;;2.50;99.90;;;;;;5091368;28;20040;-66
2021/04/13 01:14:56;;;;;;;5.20;0.88;;;2.40;99.90;;;;;;5090578;28;20066;-66
2021/04/13 01:17:24;;;;;;;7.50;0.85;;;2.40;99.90;;;;;;5090398;28;20048;-66
2021/04/13 01:20:15;;;;;;;4.72;0.73;;;2.50;99.90;;;;;;5086219;28;20040;-66
2021/04/13 01:22:55;;;;;;;10.57;0.88;;;2.40;99.90;;;;;;5084882;28;20147;-66
2021/04/13 01:25:40;;;;;;;10.35;1.05;;;2.50;99.90;;;;;;5083682;28;20066;-66
2021/04/13 01:28:06;;;;;;;13.07;1.00;;;2.50;99.90;;;;;;5084528;28;20499;-66
2021/04/13 01:30:41;;;;;;;13.50;1.27;;;2.50;99.90;;;;;;5088202;28;20055;-66
2021/04/13 01:33:17;;;;;;;10.35;1.17;;;2.40;99.90;;;;;;5091639;28;20490;-66
2021/04/13 01:35:46;;;;;;;;;;;2.40;99.90;;;;;;5087663;28;20037;-66
2021/04/13 01:38:20;;;;;;;7.30;1.70;;;2.40;99.90;;;;;;5089847;28;19931;-66
2021/04/13 01:43:37;;;;;;;6.60;0.80;;;2.50;99.90;;;;;;5085695;28;20172;-65
2021/04/13 01:46:03;;;;;;;6.22;0.68;;;2.50;99.90;;;;;;5084313;28;20036;-66
2021/04/13 01:48:31;;;;;;;9.18;1.00;;;2.50;99.90;;;;;;5083841;28;20040;-65
2021/04/13 01:51:01;;;;;;;13.00;1.38;;;2.50;99.90;;;;;;5084338;28;20201;-66
2021/04/13 01:53:28;;;;;;;10.52;0.77;;;2.40;99.90;;;;;;5082584;28;20117;-66
2021/04/13 01:56:03;;;;;;;7.07;1.00;;;2.50;99.90;;;;;;5086332;28;20064;-66
2021/04/13 01:58:41;;;;;;;;;;;2.50;99.90;;;;;;5086568;28;20071;-66
2021/04/13 02:01:28;;;;;;;10.45;0.80;;;2.50;99.90;;;;;;5084324;28;19920;-66
2021/04/13 02:04:16;;;;;;;8.63;1.23;;;2.50;99.90;;;;;;5085457;28;20075;-65
2021/04/13 02:06:57;;;;;;;5.93;0.95;;;2.50;99.90;;;;;;5088491;28;20085;-66
2021/04/13 02:09:30;;;;;;;8.60;0.93;;;2.50;99.90;;;;;;5085759;28;20093;-66
2021/04/13 02:12:03;;;;;;;7.18;1.35;;;2.50;99.90;;;;;;5089370;28;20398;-66
2021/04/13 02:14:34;;;;;;;8.25;1.40;;;2.50;99.90;;;;;;5089243;28;20028;-66
2021/04/13 02:17:14;;;;;;;9.55;0.93;;;2.50;99.90;;;;;;5089994;28;20082;-66
2021/04/13 02:19:47;;;;;;;8.10;1.20;;;2.50;99.90;;;;;;5085891;28;20089;-66
2021/04/13 02:22:16;;;;;;;7.55;0.80;;;2.40;99.90;;;;;;5089266;28;20077;-66
2021/04/13 02:24:43;;;;;;;8.90;0.90;;;2.40;99.90;;;;;;5089189;28;20052;-66
2021/04/13 02:27:20;;;;;;;12.70;1.10;;;2.40;99.90;;;;;;5088433;28;20069;-66
2021/04/13 02:29:52;;;;;;;8.82;1.55;;;2.40;99.90;;;;;;5087132;28;20064;-67
2021/04/13 02:32:23;;;;;;;7.43;1.60;;;2.30;99.90;;;;;;5088100;28;20036;-66
2021/04/13 02:34:58;;;;;;;9.32;0.90;;;2.30;99.90;;;;;;5087127;28;20040;-67
2021/04/13 02:37:40;;;;;;;8.18;1.02;;;2.30;99.90;;;;;;5085830;28;20139;-67
2021/04/13 02:40:07;;;;;;;7.65;0.63;;;2.30;99.90;;;;;;5088129;28;20395;-67
2021/04/13 02:42:37;;;;;;;8.77;0.77;;;2.40;99.90;;;;;;5086509;28;20089;-67
2021/04/13 02:45:09;;;;;;;8.77;0.75;;;2.20;99.90;;;;;;5089606;28;20119;-66
2021/04/13 02:47:43;;;;;;;8.40;0.93;;;2.20;99.90;;;;;;5084559;28;20052;-66
2021/04/13 02:50:15;;;;;;;11.98;1.00;;;2.20;99.90;;;;;;5088551;28;20032;-66
2021/04/13 02:52:47;;;;;;;9.07;1.10;;;2.20;99.90;;;;;;5086763;28;20024;-66
2021/04/13 02:55:22;;;;;;;6.15;0.73;;;2.20;99.90;;;;;;5088007;28;20039;-66
2021/04/13 02:57:48;;;;;;;8.20;0.93;;;2.20;99.90;;;;;;5086294;28;20040;-66
2021/04/13 03:00:34;;;;;;;10.95;1.20;;;2.20;99.90;;;;;;5088219;28;20448;-67
2021/04/13 03:03:09;;;;;;;9.38;0.60;;;2.20;99.90;;;;;;5086752;28;20064;-66
2021/04/13 03:05:36;;;;;;;8.20;0.90;;;2.30;99.90;;;;;;5087739;28;20043;-66
2021/04/13 03:08:09;;;;;;;8.43;1.17;;;2.10;99.90;;;;;;5087842;28;20032;-66
2021/04/13 03:10:40;;;;;;;14.25;1.88;;;2.10;99.90;;;;;;5084945;28;20117;-66
2021/04/13 03:13:10;;;;;;;12.18;1.20;;;2.10;99.90;;;;;;5086958;28;20040;-66
2021/04/13 03:15:39;;;;;;;12.68;1.85;;;2.10;99.90;;;;;;5088466;28;20483;-66
2021/04/13 03:18:16;;;;;;;14.20;1.67;;;2.10;99.90;;;;;;5087901;28;20047;-66
2021/04/13 03:20:46;;;;;;;8.07;1.05;;;2.10;99.90;;;;;;5086342;28;20040;-66
2021/04/13 03:23:15;;;;;;;14.23;1.17;;;2.10;99.90;;;;;;5087554;28;20032;-66
2021/04/13 03:25:51;;;;;;;8.63;1.27;;;2.30;99.90;;;;;;5083869;28;20036;-66
2021/04/13 03:28:22;;;;;;;8.35;0.90;;;2.00;99.90;;;;;;5088257;28;20036;-67
2021/04/13 03:30:49;;;;;;;15.80;2.33;;;2.00;99.90;;;;;;5088419;28;20067;-67
2021/04/13 03:33:28;;;;;;;10.98;1.10;;;2.00;99.90;;;;;;5088020;28;20035;-66
2021/04/13 03:36:05;;;;;;;8.90;1.05;;;2.00;99.90;;;;;;5085774;28;20046;-67
2021/04/13 03:38:32;;;;;;;13.73;1.85;;;2.00;99.90;;;;;;5084452;28;20035;-67
2021/04/13 03:40:58;;;;;;;6.78;0.77;;;1.90;99.90;;;;;;5087936;28;20482;-67
2021/04/13 03:43:28;;;;;;;16.27;1.20;;;1.90;99.90;;;;;;5086885;28;20055;-67
2021/04/13 03:45:57;;;;;;;7.15;1.20;;;2.00;99.90;;;;;;5086055;28;20032;-67
2021/04/13 03:48:26;;;;;;;11.10;1.13;;;1.90;99.90;;;;;;5085370;28;20036;-66
2021/04/13 03:51:27;;;;;;;8.68;1.13;;;1.90;99.90;;;;;;5085785;28;20044;-67
2021/04/13 03:53:54;;;;;;;12.45;1.77;;;1.90;99.90;;;;;;5056253;28;20047;-67
2021/04/13 03:56:22;;;;;;;7.38;1.35;;;1.90;99.90;;;;;;5087469;28;20044;-67
2021/04/13 03:58:51;;;;;;;9.57;1.25;;;1.90;99.90;;;;;;5086377;28;20044;-67
2021/04/13 04:01:21;;;;;;;9.07;1.38;;;1.90;99.90;;;;;;5086565;28;20032;-67
2021/04/13 04:03:58;;;;;;;11.18;1.00;;;1.90;99.90;;;;;;5088312;28;20036;-67
2021/04/13 04:06:54;;;;;;;10.02;1.10;;;1.90;99.90;;;;;;5094986;28;20028;-67
2021/04/13 04:09:33;;;;;;;16.63;0.90;;;2.20;99.90;;;;;;5093259;28;20043;-67
2021/04/13 04:12:14;;;;;;;6.90;1.35;;;1.80;99.90;;;;;;5089045;28;20039;-67
2021/04/13 04:14:40;;;;;;;13.82;1.48;;;1.90;99.90;;;;;;5093529;28;20040;-67
2021/04/13 04:17:20;;;;;;;11.90;1.17;;;1.80;99.90;;;;;;5090720;28;20047;-67
2021/04/13 04:19:54;;;;;;;16.40;2.35;;;1.80;99.90;;;;;;5089715;28;20139;-66
2021/04/13 04:22:22;;;;;;;15.63;1.35;;;1.90;99.90;;;;;;5090968;28;20106;-66
2021/04/13 04:24:47;;;;;;;8.48;0.93;;;1.80;99.90;;;;;;5092077;28;20169;-65
2021/04/13 04:27:13;;;;;;;13.48;1.83;;;1.80;99.90;;;;;;5094192;28;20151;-66
2021/04/13 04:29:43;;;;;;;8.82;1.20;;;1.90;99.90;;;;;;5092776;28;20044;-66
2021/04/13 04:32:27;;;;;;;13.35;1.30;;;1.90;99.90;;;;;;5094112;28;20067;-66
2021/04/13 04:34:56;;;;;;;8.80;1.05;;;1.90;99.90;;;;;;5090814;28;20043;-66
2021/04/13 04:37:29;;;;;;;8.10;1.35;;;1.90;99.90;;;;;;5093413;28;20876;-66
2021/04/13 04:40:16;;;;;;;15.57;1.30;;;1.90;99.90;;;;;;5094244;28;20042;-66
2021/04/13 04:42:51;;;;;;;12.02;1.70;;;1.90;99.90;;;;;;5094960;28;20042;-67
2021/04/13 04:45:32;;;;;;;10.00;1.23;;;1.90;99.90;;;;;;5095679;28;20046;-66
2021/04/13 04:47:58;;;;;;;10.65;1.20;;;1.90;99.90;;;;;;5088701;28;20067;-66
2021/04/13 04:50:24;;;;;;;14.73;1.15;;;1.90;99.90;;;;;;5093160;28;20048;-67
2021/04/13 04:52:50;;;;;;;13.05;1.50;;;1.90;99.90;;;;;;5091266;28;20054;-67
2021/04/13 04:55:16;;;;;;;18.35;1.23;;;2.00;99.90;;;;;;5094622;28;20044;-67
2021/04/13 04:57:42;;;;;;;20.85;1.80;;;2.00;99.90;;;;;;5093799;28;20129;-66
2021/04/13 05:00:10;;;;;;;9.15;1.30;;;2.10;99.90;;;;;;5092248;28;20132;-66
2021/04/13 05:02:36;;;;;;;11.95;1.27;;;2.10;99.90;;;;;;5094193;28;20040;-67
2021/04/13 05:05:03;;;;;;;30.73;1.85;;;2.10;99.90;;;;;;5095528;28;20039;-67
2021/04/13 05:07:29;;;;;;;16.67;2.58;;;2.20;99.90;;;;;;5090548;28;20048;-67
2021/04/13 05:09:55;;;;;;;17.65;1.30;;;2.30;99.90;;;;;;5093377;28;20032;-67
2021/04/13 05:12:21;;;;;;;17.42;1.88;;;2.30;99.90;;;;;;5092791;28;20124;-67
2021/04/13 05:14:47;;;;;;;9.85;1.02;;;2.40;99.90;;;;;;5092351;28;20111;-67
2021/04/13 05:17:13;;;;;;;16.48;1.30;;;2.70;99.90;;;;;;5090004;28;20127;-67
2021/04/13 05:19:38;;;;;;;17.38;1.48;;;3.20;99.90;;;;;;5088653;28;20036;-67
2021/04/13 05:22:04;;;;;;;29.08;2.03;;;3.80;99.90;;;;;;5085223;28;20031;-67
2021/04/13 05:24:30;;;;;;;12.35;3.35;;;4.40;99.90;;;;;;5086640;28;20101;-67
2021/04/13 05:26:56;;;;;;;6.68;1.17;;;4.90;99.90;;;;;;5090707;28;20440;-67
2021/04/13 05:29:23;;;;;;;9.55;2.00;;;5.50;99.40;;;;;;5088362;28;20036;-67
2021/04/13 05:31:49;;;;;;;9.90;1.25;;;6.10;97.90;;;;;;5086630;28;20101;-68
2021/04/13 05:34:14;;;;;;;9.27;1.45;;;6.50;97.30;;;;;;5085261;28;20032;-68
2021/04/13 05:36:43;;;;;;;9.23;0.93;;;7.00;96.10;;;;;;5088630;28;20401;-68
2021/04/13 05:39:10;;;;;;;10.13;1.10;;;7.50;95.40;;;;;;5084047;28;20068;-68
2021/04/13 05:41:36;;;;;;;10.25;1.20;;;7.70;94.20;;;;;;5086988;28;20032;-68
2021/04/13 05:44:03;;;;;;;11.95;2.00;;;8.00;93.50;;;;;;5088511;28;20052;-68
2021/04/13 05:46:32;;;;;;;11.57;1.10;;;8.30;92.60;;;;;;5089326;28;20051;-68
2021/04/13 05:48:58;;;;;;;8.55;1.27;;;8.60;91.80;;;;;;5083728;28;20067;-68
2021/04/13 05:51:24;;;;;;;12.13;1.75;;;8.90;92.00;;;;;;5086705;28;20075;-68
2021/04/13 05:53:49;;;;;;;7.97;0.90;;;9.40;91.00;;;;;;5086455;28;20406;-68
2021/04/13 05:56:19;;;;;;;17.65;1.77;;;9.50;91.10;;;;;;5088495;28;20040;-68
2021/04/13 05:58:49;;;;;;;9.05;1.55;;;9.80;89.30;;;;;;5088291;28;20063;-68
2021/04/13 06:01:17;;;;;;;11.30;2.05;;;10.20;88.20;;;;;;5087515;28;20035;-68
2021/04/13 06:03:44;;;;;;;8.55;1.35;;;10.50;86.90;;;;;;5087610;28;20040;-68
2021/04/13 06:06:11;;;;;;;9.52;1.05;;;10.80;87.90;;;;;;5089785;28;20551;-67
2021/04/13 06:08:36;;;;;;;12.65;1.80;;;11.20;83.40;;;;;;5085374;28;20475;-68
2021/04/13 06:11:02;;;;;;;11.48;1.63;;;11.50;84.50;;;;;;5085053;28;20044;-67
2021/04/13 06:13:29;;;;;;;12.07;1.30;;;11.70;82.20;;;;;;5086765;28;20061;-67
2021/04/13 06:15:55;;;;;;;7.50;1.33;;;12.00;81.60;;;;;;5089454;28;20078;-67
2021/04/13 06:18:22;;;;;;;13.35;1.23;;;11.90;80.00;;;;;;5087575;28;20573;-67
2021/04/13 06:20:48;;;;;;;9.90;2.22;;;12.20;77.80;;;;;;5087244;28;20046;-68
2021/04/13 06:23:14;;;;;;;8.88;1.00;;;12.30;76.40;;;;;;5085108;28;20066;-67
2021/04/13 06:25:40;;;;;;;7.60;1.50;;;12.40;75.20;;;;;;5088938;28;20093;-68
2021/04/13 06:28:06;;;;;;;11.98;1.42;;;12.40;77.50;;;;;;5086079;28;20050;-67
2021/04/13 06:30:32;;;;;;;8.13;1.35;;;12.60;75.20;;;;;;5086765;28;20119;-68
2021/04/13 06:32:58;;;;;;;11.27;1.10;;;12.90;75.50;;;;;;5090897;28;20518;-68
2021/04/13 06:35:26;;;;;;;17.40;2.50;;;13.00;75.40;;;;;;5091367;28;20047;-68
2021/04/13 06:37:57;;;;;;;7.57;1.23;;;13.00;71.40;;;;;;5085980;28;20040;-68
2021/04/13 06:40:47;;;;;;;10.63;1.25;;;12.80;70.60;;;;;;5088187;28;20082;-68
2021/04/13 06:43:34;;;;;;;7.03;1.35;;;12.90;69.70;;;;;;5088080;28;20498;-68
2021/04/13 06:46:13;;;;;;;7.68;1.08;;;13.10;66.80;;;;;;5088563;28;20047;-68
2021/04/13 06:48:52;;;;;;;9.10;1.30;;;13.20;72.30;;;;;;5087160;28;20047;-68
2021/04/13 06:51:51;;;;;;;8.80;1.05;;;13.20;67.90;;;;;;5087362;28;20087;-68
2021/04/13 06:54:23;;;;;;;7.93;1.20;;;13.40;67.00;;;;;;5088310;28;20040;-68
2021/04/13 06:57:32;;;;;;;6.75;0.90;;;13.80;68.50;;;;;;5088608;28;20050;-68
2021/04/13 07:00:16;;;;;;;9.27;1.00;;;13.90;67.60;;;;;;5087892;28;20066;-68
2021/04/13 07:03:00;;;;;;;9.95;1.60;;;14.00;64.60;;;;;;5088144;28;20048;-68
2021/04/13 07:05:58;;;;;;;11.20;1.25;;;14.40;62.80;;;;;;5086428;28;20044;-68
2021/04/13 07:08:41;;;;;;;;;;;14.50;61.70;;;;;;5085890;28;20070;-68
2021/04/13 07:11:35;;;;;;;9.80;1.00;;;14.40;61.70;;;;;;5087729;28;20084;-68
2021/04/13 07:14:22;;;;;;;8.68;1.08;;;14.70;61.40;;;;;;5089987;28;20042;-69
2021/04/13 07:17:09;;;;;;;8.82;1.10;;;14.90;60.50;;;;;;5089802;28;20042;-68
2021/04/13 07:19:40;;;;;;;8.52;1.33;;;15.00;59.80;;;;;;5088298;28;20402;-69
2021/04/13 07:22:22;;;;;;;5.20;1.20;;;14.70;59.70;;;;;;5088703;28;20036;-69
2021/04/13 07:25:00;;;;;;;8.77;1.20;;;14.90;59.20;;;;;;5087796;28;20383;-69
2021/04/13 07:27:45;;;;;;;10.23;1.77;;;14.60;60.40;;;;;;5088690;28;20091;-69
2021/04/13 07:30:14;;;;;;;6.57;1.10;;;14.30;60.10;;;;;;5088985;28;20039;-69
2021/04/13 07:32:42;;;;;;;7.28;0.75;;;14.30;62.50;;;;;;5086941;28;20036;-69
2021/04/13 07:35:13;;;;;;;7.32;1.05;;;13.70;62.80;;;;;;5086043;28;20081;-69
2021/04/13 07:37:40;;;;;;;7.57;1.08;;;13.50;63.50;;;;;;5086273;28;20043;-69
2021/04/13 07:40:11;;;;;;;7.63;1.05;;;13.40;65.20;;;;;;5086202;28;20118;-69
2021/04/13 07:42:42;;;;;;;9.27;1.20;;;13.40;64.60;;;;;;5085521;28;20048;-69
2021/04/13 07:45:45;;;;;;;9.57;1.45;;;13.30;66.60;;;;;;5087413;28;20082;-69
2021/04/13 07:48:25;;;;;;;4.93;0.93;;;13.40;62.80;;;;;;5114289;27;20047;-69
2021/04/13 07:51:23;;;;;;;8.73;1.90;;;12.90;60.10;;;;;;5084572;28;20071;-69
2021/04/13 07:54:04;;;;;;;6.78;1.13;;;13.50;62.50;;;;;;5088669;28;20040;-69
2021/04/13 07:56:42;;;;;;;10.07;1.20;;;13.70;63.50;;;;;;5116921;27;20074;-69
2021/04/13 07:59:55;;;;;;;8.57;1.13;;;14.10;60.60;;;;;;5087461;28;20039;-69
2021/04/13 08:02:21;;;;;;;6.85;1.40;;;14.30;61.60;;;;;;5088258;28;20036;-69
2021/04/13 08:04:50;;;;;;;5.88;0.82;;;14.50;57.90;;;;;;5088440;28;20887;-69
2021/04/13 08:07:21;;;;;;;8.93;1.02;;;14.80;58.60;;;;;;5083258;28;20398;-69
2021/04/13 08:10:16;;;;;;;4.85;0.68;;;14.30;57.80;;;;;;5085480;28;20766;-69
2021/04/13 08:12:53;;;;;;;5.68;1.40;;;13.90;58.80;;;;;;5085408;28;20044;-69
2021/04/13 08:15:39;;;;;;;5.22;1.27;;;14.20;57.70;;;;;;5080907;28;20032;-69
2021/04/13 08:18:26;;;;;;;5.38;1.20;;;14.00;59.40;;;;;;5112050;28;20794;-69
2021/04/13 08:21:11;;;;;;;3.17;0.57;;;13.90;58.40;;;;;;5082152;28;20040;-69
2021/04/13 08:23:38;;;;;;;7.72;1.13;;;14.20;59.80;;;;;;5112096;27;20040;-69
2021/04/13 08:26:26;;;;;;;7.50;0.82;;;14.10;59.20;;;;;;5087448;28;20078;-69
2021/04/13 08:29:09;;;;;;;3.40;1.25;;;13.80;54.40;;;;;;5087527;28;20089;-69
2021/04/13 08:35:13;;;;;;;4.57;0.95;;;13.50;54.20;;;;;;5081085;28;21050;-69
2021/04/13 08:37:58;;;;;;;4.10;0.85;;;13.40;57.60;;;;;;5086877;28;20418;-69
2021/04/13 08:40:42;;;;;;;3.58;0.70;;;13.10;58.30;;;;;;5085050;28;20090;-69
2021/04/13 08:43:15;;;;;;;5.53;0.93;;;13.20;60.30;;;;;;5087567;28;20608;-68
2021/04/13 08:45:46;;;;;;;3.20;0.65;;;13.20;55.30;;;;;;5087716;28;20040;-68
2021/04/13 08:48:38;;;;;;;6.00;1.05;;;13.20;59.50;;;;;;5087976;28;20593;-68
2021/04/13 08:51:08;;;;;;;5.72;0.80;;;13.30;60.90;;;;;;5086457;28;20051;-68
2021/04/13 08:53:41;;;;;;;8.25;1.30;;;13.50;61.40;;;;;;5081381;28;20111;-69
2021/04/13 08:56:22;;;;;;;5.65;1.10;;;13.50;59.30;;;;;;5085857;28;20048;-69
2021/04/13 08:58:58;;;;;;;9.25;0.80;;;13.20;58.20;;;;;;5087316;28;20036;-68
2021/04/13 09:01:38;;;;;;;6.25;0.55;;;12.50;60.50;;;;;;5089312;28;20516;-68
2021/04/13 09:04:10;;;;;;;7.13;0.95;;;12.10;58.90;;;;;;5090129;28;20424;-68
2021/04/13 09:07:14;;;;;;;4.22;0.60;;;11.30;63.30;;;;;;5088523;28;20039;-68
2021/04/13 09:09:41;;;;;;;2.85;0.57;;;10.60;66.90;;;;;;5088078;28;20458;-68
2021/04/13 09:12:25;;;;;;;4.53;0.80;;;10.40;72.90;;;;;;5091578;28;20093;-68
2021/04/13 09:15:14;;;;;;;3.28;0.50;;;10.10;75.30;;;;;;5090008;28;20043;-68
2021/04/13 09:17:59;;;;;;;1.85;0.93;;;9.80;80.60;;;;;;5086228;28;20198;-68
2021/04/13 09:20:31;;;;;;;5.80;0.60;;;9.70;81.60;;;;;;5089947;28;20059;-68
2021/04/13 09:23:11;;;;;;;3.78;0.63;;;9.70;82.30;;;;;;5083783;28;20803;-68
2021/04/13 09:25:43;;;;;;;4.45;0.80;;;9.90;86.70;;;;;;5085597;28;20047;-68
2021/04/13 09:28:13;;;;;;;3.05;0.32;;;10.10;86.40;;;;;;5086667;28;20067;-68
2021/04/13 09:30:45;;;;;;;5.95;0.85;;;10.30;83.80;;;;;;5091510;28;20062;-68
2021/04/13 09:33:19;;;;;;;6.60;0.75;;;10.60;85.20;;;;;;5085315;28;20491;-68
2021/04/13 09:35:51;;;;;;;8.85;0.88;;;10.80;82.70;;;;;;5088880;28;20100;-68
2021/04/13 09:38:39;;;;;;;4.78;0.60;;;11.00;80.40;;;;;;5086422;28;20101;-68
2021/04/13 09:41:24;;;;;;;6.70;0.77;;;11.30;77.70;;;;;;5090186;28;20476;-68
2021/04/13 09:44:28;;;;;;;7.45;1.02;;;11.40;75.90;;;;;;5088813;28;20040;-68
2021/04/13 09:47:17;;;;;;;4.55;0.80;;;11.60;78.20;;;;;;5087722;28;20036;-68
2021/04/13 09:49:52;;;;;;;9.18;1.13;;;11.50;75.40;;;;;;5089262;28;20051;-68
2021/04/13 09:52:38;;;;;;;4.90;0.57;;;11.20;70.50;;;;;;5088880;28;20067;-68
2021/04/13 09:55:32;;;;;;;3.83;0.52;;;11.20;70.40;;;;;;5086586;28;20397;-68
2021/04/13 09:58:14;;;;;;;8.70;1.30;;;11.40;72.80;;;;;;5067549;28;20120;-68
2021/04/13 10:01:13;;;;;;;6.25;0.73;;;11.60;71.80;;;;;;5087047;28;20063;-68
2021/04/13 10:03:57;;;;;;;5.28;0.40;;;11.80;68.40;;;;;;5088903;28;20032;-67
2021/04/13 10:06:35;;;;;;;9.07;0.90;;;11.90;71.80;;;;;;5090258;28;20044;-67
2021/04/13 10:09:32;;;;;;;9.15;0.65;;;11.90;72.20;;;;;;5088502;28;20040;-67
2021/04/13 10:12:11;;;;;;;5.13;0.98;;;11.50;68.00;;;;;;5081641;28;20055;-67
2021/04/13 10:15:00;;;;;;;25.33;2.67;;;10.90;64.40;;;;;;5086445;28;20040;-67
2021/04/13 10:17:44;;;;;;;5.35;0.50;;;10.70;72.30;;;;;;5089524;28;20036;-67
2021/04/13 10:20:31;;;;;;;9.20;0.70;;;10.80;75.90;;;;;;5087295;28;20057;-67
2021/04/13 10:23:21;;;;;;;6.40;0.65;;;10.30;75.10;;;;;;5085773;28;20040;-67
2021/04/13 10:26:26;;;;;;;5.63;0.55;;;10.00;77.80;;;;;;5115106;27;20038;-67
2021/04/13 10:29:31;;;;;;;5.53;0.32;;;9.70;78.00;;;;;;5070686;28;20040;-67
2021/04/13 10:32:41;;;;;;;4.13;0.50;;;9.50;80.00;;;;;;5088216;28;20055;-67
2021/04/13 10:35:41;;;;;;;6.57;1.08;;;9.40;74.20;;;;;;5087520;28;20047;-67
2021/04/13 10:38:43;;;;;;;2.88;0.63;;;9.20;81.90;;;;;;5086951;28;20044;-67
2021/04/13 10:41:12;;;;;;;4.93;0.40;;;9.40;86.60;;;;;;5088199;28;20101;-67
2021/04/13 10:43:53;;;;;;;5.82;0.45;;;9.70;85.30;;;;;;5088327;28;20051;-67
2021/04/13 10:46:38;;;;;;;4.47;0.52;;;9.90;85.30;;;;;;5089009;28;20082;-67
2021/04/13 10:49:32;;;;;;;4.03;0.47;;;10.20;81.30;;;;;;5089320;28;20044;-67
2021/04/13 10:52:27;;;;;;;3.90;0.80;;;10.40;80.50;;;;;;5088652;28;20040;-67
2021/04/13 10:55:05;;;;;;;8.45;0.88;;;10.70;77.20;;;;;;5087734;28;20032;-67
2021/04/13 10:57:53;;;;;;;2.97;0.40;;;11.00;78.70;;;;;;5087732;28;20043;-67
2021/04/13 11:00:37;;;;;;;6.80;1.02;;;10.90;76.50;;;;;;5088532;28;20044;-67
2021/04/13 11:04:00;;;;;;;7.10;0.52;;;10.90;75.20;;;;;;5089086;28;20122;-67
2021/04/13 11:06:53;;;;;;;5.43;0.75;;;10.80;69.00;;;;;;5044207;28;20040;-67
2021/04/13 11:09:55;;;;;;;2.20;0.30;;;10.80;65.80;;;;;;5044329;28;20041;-67
2021/04/13 11:12:30;;;;;;;2.72;0.30;;;11.00;73.20;;;;;;5042654;28;20617;-66
2021/04/13 11:15:13;;;;;;;14.65;1.00;;;11.10;74.00;;;;;;5119329;27;20032;-67
2021/04/13 11:17:55;;;;;;;4.90;0.30;;;11.30;73.90;;;;;;5088048;28;20031;-67
2021/04/13 11:21:13;;;;;;;1.75;0.30;;;11.20;65.20;;;;;;5087960;28;20065;-67
2021/04/13 11:23:41;;;;;;;;;;;11.00;71.10;;;;;;5043418;28;20040;-67
2021/04/13 11:26:29;;;;;;;3.97;0.32;;;11.10;72.00;;;;;;5088136;28;19931;-67
2021/04/13 11:29:31;;;;;;;4.53;0.63;;;11.30;73.80;;;;;;5087923;28;20036;-67
2021/04/13 11:32:19;;;;;;;4.15;0.47;;;11.10;69.10;;;;;;5087643;28;20109;-67
2021/04/13 11:35:03;;;;;;;6.30;1.02;;;11.00;71.10;;;;;;5086055;28;20086;-67
2021/04/13 11:37:40;;;;;;;6.50;0.90;;;10.80;72.10;;;;;;5087914;28;20142;-67
2021/04/13 11:40:09;;;;;;;8.40;0.73;;;10.70;71.10;;;;;;5084822;28;20061;-67
2021/04/13 11:42:39;;;;;;;3.25;0.50;;;10.80;74.20;;;;;;5087333;28;20135;-67
2021/04/13 11:45:14;;;;;;;2.33;0.40;;;11.00;76.50;;;;;;5088206;28;20089;-67
2021/04/13 11:47:53;;;;;;;7.97;0.35;;;11.00;63.90;;;;;;5085791;28;20066;-67
2021/04/13 11:50:27;;;;;;;2.10;0.70;;;11.00;65.20;;;;;;5085230;28;20071;-67
2021/04/13 11:53:27;;;;;;;6.82;0.88;;;11.00;67.30;;;;;;5087072;28;20058;-67
2021/04/13 11:55:54;;;;;;;2.88;0.25;;;11.00;65.70;;;;;;5085140;28;20081;-67
2021/04/13 11:58:25;;;;;;;6.03;0.40;;;11.30;71.00;;;;;;5087682;28;20043;-67
2021/04/13 12:00:52;;;;;;;4.60;0.30;;;11.30;67.40;;;;;;5083402;28;20039;-67
2021/04/13 12:03:25;;;;;;;4.15;0.32;;;11.10;67.60;;;;;;5086190;28;20044;-67
2021/04/13 12:05:53;;;;;;;4.10;0.40;;;11.00;68.00;;;;;;5085955;28;20097;-67
2021/04/13 12:08:44;;;;;;;3.97;0.40;;;10.80;71.90;;;;;;5088440;28;20753;-67
2021/04/13 12:11:35;;;;;;;4.07;0.40;;;11.00;75.60;;;;;;5086374;28;20044;-67
2021/04/13 12:14:25;;;;;;;3.63;0.50;;;11.30;68.90;;;;;;5083671;28;20066;-67
2021/04/13 12:16:53;;;;;;;1.98;0.30;;;11.40;68.30;;;;;;5088140;28;20062;-67
2021/04/13 12:19:20;;;;;;;4.45;0.45;;;11.30;65.80;;;;;;5087912;28;20076;-67
2021/04/13 12:21:52;;;;;;;3.13;0.32;;;11.10;65.50;;;;;;5084464;28;20036;-67
2021/04/13 12:24:44;;;;;;;4.00;0.40;;;11.00;67.10;;;;;;5088388;28;20058;-66
2021/04/13 12:27:26;;;;;;;2.75;0.35;;;10.90;62.20;;;;;;5091243;28;20047;-66
2021/04/13 12:29:53;;;;;;;5.85;0.40;;;10.70;65.80;;;;;;5090716;28;20036;-67
2021/04/13 12:32:19;;;;;;;5.40;0.43;;;10.40;67.30;;;;;;5092265;28;20032;-67
2021/04/13 12:34:52;;;;;;;4.28;0.40;;;10.50;68.90;;;;;;5091329;28;20442;-67
2021/04/13 12:37:33;;;;;;;3.47;0.50;;;10.30;71.40;;;;;;5091616;28;20067;-67
2021/04/13 12:40:23;;;;;;;7.70;0.45;;;10.30;72.60;;;;;;5088401;28;20047;-66
2021/04/13 12:43:14;;;;;;;6.07;0.40;;;10.10;72.80;;;;;;5084377;28;20125;-67
2021/04/13 12:45:44;;;;;;;6.35;0.35;;;10.20;71.40;;;;;;5089703;28;20048;-67
2021/04/13 12:48:37;;;;;;;3.38;0.30;;;10.40;71.70;;;;;;5092816;28;20116;-67
2021/04/13 12:51:03;;;;;;;4.80;0.32;;;10.50;70.50;;;;;;5083749;28;20052;-67
2021/04/13 12:53:29;;;;;;;3.05;0.52;;;10.60;70.00;;;;;;5092083;28;20036;-67
2021/04/13 12:56:12;;;;;;;2.40;0.30;;;10.70;70.50;;;;;;5091344;28;20543;-67
2021/04/13 12:58:43;;;;;;;4.85;0.35;;;10.80;70.80;;;;;;5120999;27;20108;-67
2021/04/13 13:01:20;;;;;;;2.10;0.30;;;10.90;72.70;;;;;;5091807;28;20506;-67
2021/04/13 13:03:46;;;;;;;2.70;0.30;;;10.80;67.90;;;;;;5090023;28;20125;-67
2021/04/13 13:06:21;;;;;;;4.43;0.47;;;10.70;69.70;;;;;;5090456;28;20055;-67
2021/04/13 13:09:00;;;;;;;4.33;0.50;;;10.50;67.80;;;;;;5091664;28;20486;-67
2021/04/13 13:11:26;;;;;;;4.05;0.30;;;10.40;65.90;;;;;;5091102;28;20137;-67
2021/04/13 13:13:53;;;;;;;4.47;0.82;;;10.30;70.80;;;;;;5091348;28;20044;-67
2021/04/13 13:16:24;;;;;;;2.60;0.30;;;10.60;73.60;;;;;;5089493;28;20067;-67
2021/04/13 13:18:52;;;;;;;2.97;0.50;;;10.70;76.00;;;;;;5087642;28;20098;-67
2021/04/13 13:22:32;;;;;;;4.55;0.50;;;10.70;63.00;;;;;;5069758;27;20426;-66
2021/04/13 13:25:33;;;;;;;5.50;0.40;;;10.60;64.50;;;;;;5066257;28;20047;-70
2021/04/13 13:28:12;;;;;;;3.25;0.30;;;10.50;65.10;;;;;;5063581;28;20037;-65
2021/04/13 13:30:38;;;;;;;2.60;0.22;;;10.40;65.10;;;;;;5066955;28;20131;-72
2021/04/13 13:33:04;;;;;;;2.75;0.43;;;10.20;64.10;;;;;;5049720;28;20127;-71
2021/04/13 13:35:30;;;;;;;1.77;0.30;;;10.10;65.00;;;;;;5062030;28;20202;-71
2021/04/13 13:37:59;;;;;;;3.30;0.35;;;10.00;64.60;;;;;;5069621;28;20138;-71
2021/04/13 13:40:52;;;;;;;3.53;0.40;;;10.10;64.70;;;;;;5067276;28;20090;-71
2021/04/13 13:43:24;;;;;;;3.05;0.50;;;10.30;65.70;;;;;;5066811;28;20057;-71
2021/04/13 13:45:50;;;;;;;5.97;0.77;;;10.40;67.10;;;;;;5065539;28;20040;-71